Honeyford, North Dakota
Current Conditions -  °F | °C
As of 9:29 PM on Saturday 22 Nov 2014 (Local Time) from KRDR Reporting Station
Overcast Overcast  
Wind Chill: 25°   Ceiling: 900
Heat Index: 34°   Visibility: 10mi
Dew Point: 32°   Wind: 12mph
Humidity: 93%   Direction: 200°SSW
Pressure: 29.36"   Gusts: NA
Location:  48.1078°N, 97.4492°W
Report Text: KRDR 230329Z AUTO 20010KT 10SM BKN009 OVC120 01/00 A2936 RMK AO2 CIG 009V120 BKN V SCT
Loading
Personal Weather Stations






























Interactive Weather Map New forecast layout! Learn more

10-Day Weather Forecast

Advertisements
Track Severe Weather on mobile